sensor_id;sensor_type;location;lat;lon;timestamp;P1;durP1;ratioP1;P2;durP2;ratioP2
10659;SDS011;5378;53.206;13.316;2023-04-24T00:02:42;6.70;;;3.80;;
10659;SDS011;5378;53.206;13.316;2023-04-24T00:05:32;5.73;;;3.53;;
10659;SDS011;5378;53.206;13.316;2023-04-24T00:08:19;8.70;;;4.57;;
10659;SDS011;5378;53.206;13.316;2023-04-24T00:11:09;31.50;;;3.63;;
10659;SDS011;5378;53.206;13.316;2023-04-24T00:13:56;8.77;;;3.80;;
10659;SDS011;5378;53.206;13.316;2023-04-24T00:16:44;7.90;;;4.60;;
10659;SDS011;5378;53.206;13.316;2023-04-24T00:19:30;6.47;;;4.47;;
10659;SDS011;5378;53.206;13.316;2023-04-24T00:22:17;7.07;;;4.47;;
10659;SDS011;5378;53.206;13.316;2023-04-24T00:25:06;8.13;;;4.83;;
10659;SDS011;5378;53.206;13.316;2023-04-24T00:27:55;8.30;;;4.20;;
10659;SDS011;5378;53.206;13.316;2023-04-24T00:30:42;8.30;;;4.50;;
10659;SDS011;5378;53.206;13.316;2023-04-24T00:33:29;7.70;;;4.40;;
10659;SDS011;5378;53.206;13.316;2023-04-24T00:36:15;5.73;;;4.70;;
10659;SDS011;5378;53.206;13.316;2023-04-24T00:39:04;6.37;;;4.07;;
10659;SDS011;5378;53.206;13.316;2023-04-24T00:41:54;5.77;;;3.70;;
10659;SDS011;5378;53.206;13.316;2023-04-24T00:44:43;5.03;;;4.03;;
10659;SDS011;5378;53.206;13.316;2023-04-24T00:47:30;7.87;;;4.73;;
10659;SDS011;5378;53.206;13.316;2023-04-24T00:50:20;6.00;;;4.07;;
10659;SDS011;5378;53.206;13.316;2023-04-24T00:53:08;8.67;;;3.87;;
10659;SDS011;5378;53.206;13.316;2023-04-24T00:55:55;8.80;;;4.57;;
10659;SDS011;5378;53.206;13.316;2023-04-24T00:58:43;6.37;;;4.23;;
10659;SDS011;5378;53.206;13.316;2023-04-24T01:01:32;6.03;;;4.37;;
10659;SDS011;5378;53.206;13.316;2023-04-24T01:04:20;6.50;;;4.40;;
10659;SDS011;5378;53.206;13.316;2023-04-24T01:07:07;9.97;;;4.50;;
10659;SDS011;5378;53.206;13.316;2023-04-24T01:09:56;6.30;;;4.40;;
10659;SDS011;5378;53.206;13.316;2023-04-24T01:12:43;9.03;;;5.03;;
10659;SDS011;5378;53.206;13.316;2023-04-24T01:15:30;7.87;;;4.80;;
10659;SDS011;5378;53.206;13.316;2023-04-24T01:18:19;6.60;;;4.73;;
10659;SDS011;5378;53.206;13.316;2023-04-24T01:21:07;10.17;;;5.20;;
10659;SDS011;5378;53.206;13.316;2023-04-24T01:23:56;9.80;;;4.60;;
10659;SDS011;5378;53.206;13.316;2023-04-24T01:26:43;8.93;;;4.90;;
10659;SDS011;5378;53.206;13.316;2023-04-24T01:29:30;7.53;;;4.97;;
10659;SDS011;5378;53.206;13.316;2023-04-24T01:32:18;8.60;;;5.77;;
10659;SDS011;5378;53.206;13.316;2023-04-24T01:35:07;10.17;;;5.00;;
10659;SDS011;5378;53.206;13.316;2023-04-24T01:37:54;9.43;;;4.80;;
10659;SDS011;5378;53.206;13.316;2023-04-24T01:40:43;6.37;;;3.73;;
10659;SDS011;5378;53.206;13.316;2023-04-24T01:43:31;9.67;;;6.47;;
10659;SDS011;5378;53.206;13.316;2023-04-24T01:46:18;6.90;;;4.83;;
10659;SDS011;5378;53.206;13.316;2023-04-24T01:49:05;6.43;;;4.90;;
10659;SDS011;5378;53.206;13.316;2023-04-24T01:51:52;7.50;;;5.10;;
10659;SDS011;5378;53.206;13.316;2023-04-24T01:54:40;8.13;;;4.80;;
10659;SDS011;5378;53.206;13.316;2023-04-24T01:57:28;8.77;;;5.10;;
10659;SDS011;5378;53.206;13.316;2023-04-24T02:00:16;8.87;;;4.80;;
10659;SDS011;5378;53.206;13.316;2023-04-24T02:03:03;8.37;;;5.23;;
10659;SDS011;5378;53.206;13.316;2023-04-24T02:05:51;7.70;;;4.47;;
10659;SDS011;5378;53.206;13.316;2023-04-24T02:08:38;8.23;;;5.30;;
10659;SDS011;5378;53.206;13.316;2023-04-24T02:11:25;9.33;;;5.47;;
10659;SDS011;5378;53.206;13.316;2023-04-24T02:14:14;8.87;;;5.57;;
10659;SDS011;5378;53.206;13.316;2023-04-24T02:17:01;10.47;;;5.77;;
10659;SDS011;5378;53.206;13.316;2023-04-24T02:19:49;9.30;;;5.20;;
10659;SDS011;5378;53.206;13.316;2023-04-24T02:22:36;10.03;;;6.40;;
10659;SDS011;5378;53.206;13.316;2023-04-24T02:25:22;10.50;;;6.07;;
10659;SDS011;5378;53.206;13.316;2023-04-24T02:28:13;9.40;;;5.77;;
10659;SDS011;5378;53.206;13.316;2023-04-24T02:31:01;9.47;;;6.23;;
10659;SDS011;5378;53.206;13.316;2023-04-24T02:33:48;7.43;;;5.57;;
10659;SDS011;5378;53.206;13.316;2023-04-24T02:36:35;11.03;;;6.27;;
10659;SDS011;5378;53.206;13.316;2023-04-24T02:39:22;12.87;;;5.50;;
10659;SDS011;5378;53.206;13.316;2023-04-24T02:42:10;8.70;;;5.73;;
10659;SDS011;5378;53.206;13.316;2023-04-24T02:44:57;10.90;;;5.97;;
10659;SDS011;5378;53.206;13.316;2023-04-24T02:47:46;9.80;;;5.80;;
10659;SDS011;5378;53.206;13.316;2023-04-24T02:50:33;8.77;;;5.50;;
10659;SDS011;5378;53.206;13.316;2023-04-24T02:53:20;9.17;;;5.87;;
10659;SDS011;5378;53.206;13.316;2023-04-24T02:56:08;11.20;;;5.87;;
10659;SDS011;5378;53.206;13.316;2023-04-24T02:58:57;9.70;;;5.40;;
10659;SDS011;5378;53.206;13.316;2023-04-24T03:01:44;10.90;;;6.27;;
10659;SDS011;5378;53.206;13.316;2023-04-24T03:04:32;11.33;;;6.57;;
10659;SDS011;5378;53.206;13.316;2023-04-24T03:07:19;10.70;;;6.23;;
10659;SDS011;5378;53.206;13.316;2023-04-24T03:10:07;12.20;;;6.87;;
10659;SDS011;5378;53.206;13.316;2023-04-24T03:12:55;11.57;;;6.67;;
10659;SDS011;5378;53.206;13.316;2023-04-24T03:15:42;10.70;;;7.23;;
10659;SDS011;5378;53.206;13.316;2023-04-24T03:18:29;12.10;;;6.80;;
10659;SDS011;5378;53.206;13.316;2023-04-24T03:21:18;12.87;;;6.43;;
10659;SDS011;5378;53.206;13.316;2023-04-24T03:24:05;10.33;;;6.10;;
10659;SDS011;5378;53.206;13.316;2023-04-24T03:26:53;10.93;;;6.40;;
10659;SDS011;5378;53.206;13.316;2023-04-24T03:29:59;10.90;;;6.33;;
10659;SDS011;5378;53.206;13.316;2023-04-24T03:32:57;13.30;;;7.00;;
10659;SDS011;5378;53.206;13.316;2023-04-24T03:35:47;10.13;;;6.83;;
10659;SDS011;5378;53.206;13.316;2023-04-24T03:38:36;12.07;;;6.97;;
10659;SDS011;5378;53.206;13.316;2023-04-24T03:41:42;12.40;;;6.30;;
10659;SDS011;5378;53.206;13.316;2023-04-24T03:44:34;11.47;;;6.33;;
10659;SDS011;5378;53.206;13.316;2023-04-24T03:47:22;9.07;;;6.20;;
10659;SDS011;5378;53.206;13.316;2023-04-24T03:50:11;9.50;;;6.40;;
10659;SDS011;5378;53.206;13.316;2023-04-24T03:53:00;10.93;;;7.30;;
10659;SDS011;5378;53.206;13.316;2023-04-24T03:55:55;12.27;;;7.70;;
10659;SDS011;5378;53.206;13.316;2023-04-24T03:58:42;15.03;;;7.27;;
10659;SDS011;5378;53.206;13.316;2023-04-24T04:01:30;9.50;;;6.43;;
10659;SDS011;5378;53.206;13.316;2023-04-24T04:04:21;9.90;;;6.70;;
10659;SDS011;5378;53.206;13.316;2023-04-24T04:07:09;8.53;;;6.00;;
10659;SDS011;5378;53.206;13.316;2023-04-24T04:09:56;10.20;;;6.60;;
10659;SDS011;5378;53.206;13.316;2023-04-24T04:12:45;12.30;;;7.03;;
10659;SDS011;5378;53.206;13.316;2023-04-24T04:15:32;18.73;;;7.80;;
10659;SDS011;5378;53.206;13.316;2023-04-24T04:18:19;13.63;;;7.53;;
10659;SDS011;5378;53.206;13.316;2023-04-24T04:21:06;12.00;;;6.97;;
10659;SDS011;5378;53.206;13.316;2023-04-24T04:23:53;12.53;;;7.40;;
10659;SDS011;5378;53.206;13.316;2023-04-24T04:26:50;12.40;;;7.40;;
10659;SDS011;5378;53.206;13.316;2023-04-24T04:29:53;10.63;;;6.90;;
10659;SDS011;5378;53.206;13.316;2023-04-24T04:32:42;10.90;;;6.57;;
10659;SDS011;5378;53.206;13.316;2023-04-24T04:35:29;12.27;;;7.60;;
10659;SDS011;5378;53.206;13.316;2023-04-24T04:38:17;11.97;;;7.47;;
10659;SDS011;5378;53.206;13.316;2023-04-24T04:41:11;12.27;;;7.40;;
10659;SDS011;5378;53.206;13.316;2023-04-24T04:43:59;12.83;;;6.77;;
10659;SDS011;5378;53.206;13.316;2023-04-24T04:46:48;11.20;;;6.63;;
10659;SDS011;5378;53.206;13.316;2023-04-24T04:49:45;11.43;;;7.20;;
10659;SDS011;5378;53.206;13.316;2023-04-24T04:52:37;13.40;;;7.40;;
10659;SDS011;5378;53.206;13.316;2023-04-24T04:55:37;10.33;;;7.57;;
10659;SDS011;5378;53.206;13.316;2023-04-24T04:58:33;11.20;;;6.90;;
10659;SDS011;5378;53.206;13.316;2023-04-24T05:01:21;14.20;;;8.07;;
10659;SDS011;5378;53.206;13.316;2023-04-24T05:04:10;12.77;;;6.70;;
10659;SDS011;5378;53.206;13.316;2023-04-24T05:06:57;13.17;;;6.60;;
10659;SDS011;5378;53.206;13.316;2023-04-24T05:09:47;10.40;;;7.00;;
10659;SDS011;5378;53.206;13.316;2023-04-24T05:12:34;11.30;;;6.87;;
10659;SDS011;5378;53.206;13.316;2023-04-24T05:15:22;12.20;;;6.97;;
10659;SDS011;5378;53.206;13.316;2023-04-24T05:18:09;12.43;;;7.23;;
10659;SDS011;5378;53.206;13.316;2023-04-24T05:20:57;9.80;;;6.97;;
10659;SDS011;5378;53.206;13.316;2023-04-24T05:23:44;12.27;;;7.47;;
10659;SDS011;5378;53.206;13.316;2023-04-24T05:26:37;14.63;;;8.70;;
10659;SDS011;5378;53.206;13.316;2023-04-24T05:29:25;8.13;;;6.00;;
10659;SDS011;5378;53.206;13.316;2023-04-24T05:32:12;6.20;;;4.77;;
10659;SDS011;5378;53.206;13.316;2023-04-24T05:35:00;7.33;;;4.90;;
10659;SDS011;5378;53.206;13.316;2023-04-24T05:37:48;6.67;;;4.47;;
10659;SDS011;5378;53.206;13.316;2023-04-24T05:40:36;5.07;;;4.30;;
10659;SDS011;5378;53.206;13.316;2023-04-24T05:43:23;5.23;;;4.20;;
10659;SDS011;5378;53.206;13.316;2023-04-24T05:46:11;9.10;;;4.90;;
10659;SDS011;5378;53.206;13.316;2023-04-24T05:48:58;5.80;;;4.57;;
10659;SDS011;5378;53.206;13.316;2023-04-24T05:51:45;6.37;;;4.60;;
10659;SDS011;5378;53.206;13.316;2023-04-24T05:54:35;6.23;;;4.97;;
10659;SDS011;5378;53.206;13.316;2023-04-24T05:57:22;7.53;;;4.63;;
10659;SDS011;5378;53.206;13.316;2023-04-24T06:00:18;6.83;;;5.37;;
10659;SDS011;5378;53.206;13.316;2023-04-24T06:03:14;6.73;;;4.23;;
10659;SDS011;5378;53.206;13.316;2023-04-24T06:06:02;4.90;;;4.03;;
10659;SDS011;5378;53.206;13.316;2023-04-24T06:08:49;6.77;;;4.63;;
10659;SDS011;5378;53.206;13.316;2023-04-24T06:11:37;6.07;;;4.47;;
10659;SDS011;5378;53.206;13.316;2023-04-24T06:14:28;7.30;;;4.20;;
10659;SDS011;5378;53.206;13.316;2023-04-24T06:17:31;7.20;;;4.53;;
10659;SDS011;5378;53.206;13.316;2023-04-24T06:20:19;6.87;;;4.93;;
10659;SDS011;5378;53.206;13.316;2023-04-24T06:23:06;5.47;;;3.70;;
10659;SDS011;5378;53.206;13.316;2023-04-24T06:25:53;9.83;;;3.70;;
10659;SDS011;5378;53.206;13.316;2023-04-24T06:28:41;6.23;;;3.90;;
10659;SDS011;5378;53.206;13.316;2023-04-24T06:31:28;4.67;;;3.57;;
10659;SDS011;5378;53.206;13.316;2023-04-24T06:34:15;4.47;;;3.20;;
10659;SDS011;5378;53.206;13.316;2023-04-24T06:37:02;5.20;;;3.50;;
10659;SDS011;5378;53.206;13.316;2023-04-24T06:39:49;5.13;;;3.10;;
10659;SDS011;5378;53.206;13.316;2023-04-24T06:42:36;5.90;;;2.93;;
10659;SDS011;5378;53.206;13.316;2023-04-24T06:45:27;3.20;;;2.60;;
10659;SDS011;5378;53.206;13.316;2023-04-24T06:48:15;2.83;;;2.40;;
10659;SDS011;5378;53.206;13.316;2023-04-24T06:51:02;4.80;;;2.70;;
10659;SDS011;5378;53.206;13.316;2023-04-24T06:53:49;6.33;;;3.20;;
10659;SDS011;5378;53.206;13.316;2023-04-24T06:56:37;3.93;;;2.70;;
10659;SDS011;5378;53.206;13.316;2023-04-24T06:59:25;4.07;;;2.57;;
10659;SDS011;5378;53.206;13.316;2023-04-24T07:02:13;3.07;;;2.30;;
10659;SDS011;5378;53.206;13.316;2023-04-24T07:05:00;2.10;;;1.90;;
10659;SDS011;5378;53.206;13.316;2023-04-24T07:07:47;2.83;;;2.50;;
10659;SDS011;5378;53.206;13.316;2023-04-24T07:10:34;2.37;;;1.97;;
10659;SDS011;5378;53.206;13.316;2023-04-24T07:13:21;2.20;;;1.67;;
10659;SDS011;5378;53.206;13.316;2023-04-24T07:16:09;1.90;;;1.43;;
10659;SDS011;5378;53.206;13.316;2023-04-24T07:18:57;1.80;;;1.70;;
10659;SDS011;5378;53.206;13.316;2023-04-24T07:21:44;4.60;;;1.93;;
10659;SDS011;5378;53.206;13.316;2023-04-24T07:24:31;2.00;;;1.40;;
10659;SDS011;5378;53.206;13.316;2023-04-24T07:27:19;4.27;;;2.07;;
10659;SDS011;5378;53.206;13.316;2023-04-24T07:30:06;2.43;;;1.60;;
10659;SDS011;5378;53.206;13.316;2023-04-24T07:32:54;2.63;;;1.53;;
10659;SDS011;5378;53.206;13.316;2023-04-24T07:35:43;2.10;;;1.90;;
10659;SDS011;5378;53.206;13.316;2023-04-24T07:38:29;1.70;;;1.30;;
10659;SDS011;5378;53.206;13.316;2023-04-24T07:41:16;2.10;;;1.13;;
10659;SDS011;5378;53.206;13.316;2023-04-24T07:44:03;1.67;;;1.30;;
10659;SDS011;5378;53.206;13.316;2023-04-24T07:46:51;1.60;;;1.50;;
10659;SDS011;5378;53.206;13.316;2023-04-24T07:49:37;1.40;;;1.30;;
10659;SDS011;5378;53.206;13.316;2023-04-24T07:52:26;1.73;;;1.17;;
10659;SDS011;5378;53.206;13.316;2023-04-24T07:55:13;1.10;;;0.97;;
10659;SDS011;5378;53.206;13.316;2023-04-24T07:58:00;1.37;;;0.77;;
10659;SDS011;5378;53.206;13.316;2023-04-24T08:00:47;0.80;;;0.70;;
10659;SDS011;5378;53.206;13.316;2023-04-24T08:03:34;1.17;;;0.97;;
10659;SDS011;5378;53.206;13.316;2023-04-24T08:06:21;1.30;;;1.20;;
10659;SDS011;5378;53.206;13.316;2023-04-24T08:09:10;1.80;;;1.10;;
10659;SDS011;5378;53.206;13.316;2023-04-24T08:11:57;1.60;;;1.00;;
10659;SDS011;5378;53.206;13.316;2023-04-24T08:14:44;2.47;;;0.80;;
10659;SDS011;5378;53.206;13.316;2023-04-24T08:17:30;0.87;;;0.80;;
10659;SDS011;5378;53.206;13.316;2023-04-24T08:20:17;0.87;;;0.80;;
10659;SDS011;5378;53.206;13.316;2023-04-24T08:23:04;2.17;;;0.70;;
10659;SDS011;5378;53.206;13.316;2023-04-24T08:25:53;1.00;;;0.77;;
10659;SDS011;5378;53.206;13.316;2023-04-24T08:28:40;1.00;;;0.73;;
10659;SDS011;5378;53.206;13.316;2023-04-24T08:31:27;1.00;;;0.90;;
10659;SDS011;5378;53.206;13.316;2023-04-24T08:34:14;1.53;;;0.83;;
10659;SDS011;5378;53.206;13.316;2023-04-24T08:37:01;1.00;;;0.73;;
10659;SDS011;5378;53.206;13.316;2023-04-24T08:39:49;1.90;;;0.93;;
10659;SDS011;5378;53.206;13.316;2023-04-24T08:42:38;1.70;;;1.00;;
10659;SDS011;5378;53.206;13.316;2023-04-24T08:45:28;1.50;;;1.00;;
10659;SDS011;5378;53.206;13.316;2023-04-24T08:48:15;1.10;;;1.00;;
10659;SDS011;5378;53.206;13.316;2023-04-24T08:51:08;2.10;;;0.97;;
10659;SDS011;5378;53.206;13.316;2023-04-24T08:53:56;1.20;;;0.87;;
10659;SDS011;5378;53.206;13.316;2023-04-24T08:56:44;1.00;;;0.80;;
10659;SDS011;5378;53.206;13.316;2023-04-24T08:59:34;1.67;;;0.80;;
10659;SDS011;5378;53.206;13.316;2023-04-24T09:02:22;4.63;;;0.90;;
10659;SDS011;5378;53.206;13.316;2023-04-24T09:05:10;2.10;;;0.87;;
10659;SDS011;5378;53.206;13.316;2023-04-24T09:07:58;1.10;;;0.70;;
10659;SDS011;5378;53.206;13.316;2023-04-24T09:10:48;0.80;;;0.67;;
10659;SDS011;5378;53.206;13.316;2023-04-24T09:13:35;0.80;;;0.73;;
10659;SDS011;5378;53.206;13.316;2023-04-24T09:16:25;0.77;;;0.70;;
10659;SDS011;5378;53.206;13.316;2023-04-24T09:19:12;0.83;;;0.60;;
10659;SDS011;5378;53.206;13.316;2023-04-24T09:21:59;0.73;;;0.57;;
10659;SDS011;5378;53.206;13.316;2023-04-24T09:24:59;0.93;;;0.50;;
10659;SDS011;5378;53.206;13.316;2023-04-24T09:27:50;1.30;;;0.70;;
10659;SDS011;5378;53.206;13.316;2023-04-24T09:30:40;0.80;;;0.50;;
10659;SDS011;5378;53.206;13.316;2023-04-24T09:33:29;1.07;;;0.73;;
10659;SDS011;5378;53.206;13.316;2023-04-24T09:36:17;0.87;;;0.70;;
10659;SDS011;5378;53.206;13.316;2023-04-24T09:39:04;1.03;;;0.70;;
10659;SDS011;5378;53.206;13.316;2023-04-24T09:41:54;0.80;;;0.60;;
10659;SDS011;5378;53.206;13.316;2023-04-24T09:44:43;1.93;;;0.70;;
10659;SDS011;5378;53.206;13.316;2023-04-24T09:47:35;1.23;;;0.80;;
10659;SDS011;5378;53.206;13.316;2023-04-24T09:50:24;0.87;;;0.60;;
10659;SDS011;5378;53.206;13.316;2023-04-24T09:53:10;0.90;;;0.70;;
10659;SDS011;5378;53.206;13.316;2023-04-24T09:56:01;0.93;;;0.50;;
10659;SDS011;5378;53.206;13.316;2023-04-24T09:58:49;1.60;;;0.80;;
10659;SDS011;5378;53.206;13.316;2023-04-24T10:01:36;0.90;;;0.63;;
10659;SDS011;5378;53.206;13.316;2023-04-24T10:04:27;0.90;;;0.67;;
10659;SDS011;5378;53.206;13.316;2023-04-24T10:07:16;1.53;;;0.80;;
10659;SDS011;5378;53.206;13.316;2023-04-24T10:10:04;1.07;;;0.50;;
10659;SDS011;5378;53.206;13.316;2023-04-24T10:12:52;2.43;;;0.50;;
10659;SDS011;5378;53.206;13.316;2023-04-24T10:15:40;0.70;;;0.53;;
10659;SDS011;5378;53.206;13.316;2023-04-24T10:18:28;1.20;;;0.70;;
10659;SDS011;5378;53.206;13.316;2023-04-24T10:21:18;1.23;;;0.60;;
10659;SDS011;5378;53.206;13.316;2023-04-24T10:24:07;0.80;;;0.57;;
10659;SDS011;5378;53.206;13.316;2023-04-24T10:26:54;0.73;;;0.47;;
10659;SDS011;5378;53.206;13.316;2023-04-24T10:29:42;0.83;;;0.60;;
10659;SDS011;5378;53.206;13.316;2023-04-24T10:32:30;1.43;;;0.60;;
10659;SDS011;5378;53.206;13.316;2023-04-24T10:35:17;2.70;;;0.40;;
10659;SDS011;5378;53.206;13.316;2023-04-24T10:38:08;0.60;;;0.30;;
10659;SDS011;5378;53.206;13.316;2023-04-24T10:40:58;0.60;;;0.43;;
10659;SDS011;5378;53.206;13.316;2023-04-24T10:44:04;0.60;;;0.50;;
10659;SDS011;5378;53.206;13.316;2023-04-24T10:46:52;1.63;;;0.50;;
10659;SDS011;5378;53.206;13.316;2023-04-24T10:49:41;0.67;;;0.37;;
10659;SDS011;5378;53.206;13.316;2023-04-24T10:55:40;1.93;;;0.50;;
10659;SDS011;5378;53.206;13.316;2023-04-24T10:58:38;1.73;;;0.80;;
10659;SDS011;5378;53.206;13.316;2023-04-24T11:01:27;3.03;;;0.57;;
10659;SDS011;5378;53.206;13.316;2023-04-24T11:04:21;0.70;;;0.30;;
10659;SDS011;5378;53.206;13.316;2023-04-24T11:07:15;0.80;;;0.50;;
10659;SDS011;5378;53.206;13.316;2023-04-24T11:10:02;1.40;;;0.50;;
10659;SDS011;5378;53.206;13.316;2023-04-24T11:12:50;1.53;;;0.57;;
10659;SDS011;5378;53.206;13.316;2023-04-24T11:15:39;0.60;;;0.40;;
10659;SDS011;5378;53.206;13.316;2023-04-24T11:18:29;1.47;;;0.63;;
10659;SDS011;5378;53.206;13.316;2023-04-24T11:21:23;0.80;;;0.80;;
10659;SDS011;5378;53.206;13.316;2023-04-24T11:24:30;3.60;;;0.73;;
10659;SDS011;5378;53.206;13.316;2023-04-24T11:27:29;0.97;;;0.70;;
10659;SDS011;5378;53.206;13.316;2023-04-24T11:30:18;0.90;;;0.40;;
10659;SDS011;5378;53.206;13.316;2023-04-24T11:33:07;1.73;;;0.80;;
10659;SDS011;5378;53.206;13.316;2023-04-24T11:35:55;0.70;;;0.50;;
10659;SDS011;5378;53.206;13.316;2023-04-24T11:38:42;3.07;;;0.60;;
10659;SDS011;5378;53.206;13.316;2023-04-24T11:41:29;0.70;;;0.50;;
10659;SDS011;5378;53.206;13.316;2023-04-24T11:44:16;1.00;;;0.40;;
10659;SDS011;5378;53.206;13.316;2023-04-24T11:47:08;0.70;;;0.40;;
10659;SDS011;5378;53.206;13.316;2023-04-24T11:49:57;1.80;;;0.63;;
10659;SDS011;5378;53.206;13.316;2023-04-24T11:52:45;3.43;;;0.80;;
10659;SDS011;5378;53.206;13.316;2023-04-24T11:55:33;0.93;;;0.50;;
10659;SDS011;5378;53.206;13.316;2023-04-24T11:58:21;1.17;;;0.60;;
10659;SDS011;5378;53.206;13.316;2023-04-24T12:01:08;1.63;;;0.67;;
10659;SDS011;5378;53.206;13.316;2023-04-24T12:03:59;1.07;;;0.73;;
10659;SDS011;5378;53.206;13.316;2023-04-24T12:07:00;0.80;;;0.60;;
10659;SDS011;5378;53.206;13.316;2023-04-24T12:09:48;0.80;;;0.63;;
10659;SDS011;5378;53.206;13.316;2023-04-24T12:12:37;0.77;;;0.63;;
10659;SDS011;5378;53.206;13.316;2023-04-24T12:15:24;1.43;;;0.97;;
10659;SDS011;5378;53.206;13.316;2023-04-24T12:18:11;0.80;;;0.70;;
10659;SDS011;5378;53.206;13.316;2023-04-24T12:24:09;5.73;;;1.10;;
10659;SDS011;5378;53.206;13.316;2023-04-24T12:26:56;1.73;;;1.10;;
10659;SDS011;5378;53.206;13.316;2023-04-24T12:29:50;3.20;;;0.90;;
10659;SDS011;5378;53.206;13.316;2023-04-24T12:32:41;4.40;;;0.93;;
10659;SDS011;5378;53.206;13.316;2023-04-24T12:35:29;0.93;;;0.60;;
10659;SDS011;5378;53.206;13.316;2023-04-24T12:38:21;1.03;;;0.57;;
10659;SDS011;5378;53.206;13.316;2023-04-24T12:41:11;0.93;;;0.67;;
10659;SDS011;5378;53.206;13.316;2023-04-24T12:43:59;1.70;;;0.53;;
10659;SDS011;5378;53.206;13.316;2023-04-24T12:46:46;0.80;;;0.40;;
10659;SDS011;5378;53.206;13.316;2023-04-24T12:49:33;0.80;;;0.47;;
10659;SDS011;5378;53.206;13.316;2023-04-24T12:52:20;2.30;;;0.87;;
10659;SDS011;5378;53.206;13.316;2023-04-24T12:55:08;0.77;;;0.60;;
10659;SDS011;5378;53.206;13.316;2023-04-24T12:57:58;1.30;;;0.53;;
10659;SDS011;5378;53.206;13.316;2023-04-24T13:00:46;3.90;;;0.60;;
10659;SDS011;5378;53.206;13.316;2023-04-24T13:03:33;1.00;;;0.50;;
10659;SDS011;5378;53.206;13.316;2023-04-24T13:06:20;2.30;;;0.87;;
10659;SDS011;5378;53.206;13.316;2023-04-24T13:09:07;3.27;;;1.20;;
10659;SDS011;5378;53.206;13.316;2023-04-24T13:11:55;4.60;;;0.90;;
10659;SDS011;5378;53.206;13.316;2023-04-24T13:14:44;5.53;;;0.90;;
10659;SDS011;5378;53.206;13.316;2023-04-24T13:17:31;1.13;;;1.00;;
10659;SDS011;5378;53.206;13.316;2023-04-24T13:20:18;1.03;;;0.67;;
10659;SDS011;5378;53.206;13.316;2023-04-24T13:23:05;6.43;;;0.80;;
10659;SDS011;5378;53.206;13.316;2023-04-24T13:25:52;1.40;;;0.90;;
10659;SDS011;5378;53.206;13.316;2023-04-24T13:28:40;0.90;;;0.77;;
10659;SDS011;5378;53.206;13.316;2023-04-24T13:31:29;8.13;;;1.00;;
10659;SDS011;5378;53.206;13.316;2023-04-24T13:34:16;2.90;;;1.20;;
10659;SDS011;5378;53.206;13.316;2023-04-24T13:37:03;2.83;;;1.23;;
10659;SDS011;5378;53.206;13.316;2023-04-24T13:39:51;2.40;;;0.73;;
10659;SDS011;5378;53.206;13.316;2023-04-24T13:42:39;2.80;;;1.00;;
10659;SDS011;5378;53.206;13.316;2023-04-24T13:45:26;1.47;;;0.90;;
10659;SDS011;5378;53.206;13.316;2023-04-24T13:48:14;1.00;;;0.80;;
10659;SDS011;5378;53.206;13.316;2023-04-24T13:51:02;1.43;;;0.80;;
10659;SDS011;5378;53.206;13.316;2023-04-24T13:53:49;4.13;;;1.30;;
10659;SDS011;5378;53.206;13.316;2023-04-24T13:56:36;0.77;;;0.63;;
10659;SDS011;5378;53.206;13.316;2023-04-24T13:59:23;1.53;;;0.97;;
10659;SDS011;5378;53.206;13.316;2023-04-24T14:02:10;1.00;;;0.73;;
10659;SDS011;5378;53.206;13.316;2023-04-24T14:04:59;1.87;;;1.30;;
10659;SDS011;5378;53.206;13.316;2023-04-24T14:07:46;1.00;;;0.90;;
10659;SDS011;5378;53.206;13.316;2023-04-24T14:10:36;2.60;;;1.20;;
10659;SDS011;5378;53.206;13.316;2023-04-24T14:13:23;1.90;;;1.70;;
10659;SDS011;5378;53.206;13.316;2023-04-24T14:16:10;1.03;;;0.90;;
10659;SDS011;5378;53.206;13.316;2023-04-24T14:18:58;1.53;;;0.80;;
10659;SDS011;5378;53.206;13.316;2023-04-24T14:21:46;1.20;;;0.90;;
10659;SDS011;5378;53.206;13.316;2023-04-24T14:24:33;1.43;;;1.00;;
10659;SDS011;5378;53.206;13.316;2023-04-24T14:27:20;1.00;;;0.90;;
10659;SDS011;5378;53.206;13.316;2023-04-24T14:30:07;1.33;;;1.00;;
10659;SDS011;5378;53.206;13.316;2023-04-24T14:32:55;0.97;;;0.87;;
10659;SDS011;5378;53.206;13.316;2023-04-24T14:35:42;1.87;;;1.17;;
10659;SDS011;5378;53.206;13.316;2023-04-24T14:38:31;1.63;;;0.87;;
10659;SDS011;5378;53.206;13.316;2023-04-24T14:41:18;1.07;;;0.97;;
10659;SDS011;5378;53.206;13.316;2023-04-24T14:44:05;1.13;;;0.97;;
10659;SDS011;5378;53.206;13.316;2023-04-24T14:46:52;3.00;;;1.23;;
10659;SDS011;5378;53.206;13.316;2023-04-24T14:49:39;3.13;;;1.63;;
10659;SDS011;5378;53.206;13.316;2023-04-24T14:52:26;1.87;;;1.20;;
10659;SDS011;5378;53.206;13.316;2023-04-24T14:55:15;1.40;;;0.90;;
10659;SDS011;5378;53.206;13.316;2023-04-24T14:58:02;2.33;;;1.50;;
10659;SDS011;5378;53.206;13.316;2023-04-24T15:00:50;2.63;;;1.60;;
10659;SDS011;5378;53.206;13.316;2023-04-24T15:03:39;1.47;;;1.37;;
10659;SDS011;5378;53.206;13.316;2023-04-24T15:06:27;1.33;;;1.20;;
10659;SDS011;5378;53.206;13.316;2023-04-24T15:09:16;1.90;;;1.50;;
10659;SDS011;5378;53.206;13.316;2023-04-24T15:12:05;0.90;;;0.90;;
10659;SDS011;5378;53.206;13.316;2023-04-24T15:14:52;1.87;;;1.30;;
10659;SDS011;5378;53.206;13.316;2023-04-24T15:17:39;4.43;;;1.60;;
10659;SDS011;5378;53.206;13.316;2023-04-24T15:20:26;3.00;;;1.27;;
10659;SDS011;5378;53.206;13.316;2023-04-24T15:23:13;2.67;;;1.63;;
10659;SDS011;5378;53.206;13.316;2023-04-24T15:26:00;3.50;;;1.70;;
10659;SDS011;5378;53.206;13.316;2023-04-24T15:28:49;1.30;;;1.20;;
10659;SDS011;5378;53.206;13.316;2023-04-24T15:31:36;1.93;;;1.20;;
10659;SDS011;5378;53.206;13.316;2023-04-24T15:34:25;2.60;;;1.77;;
10659;SDS011;5378;53.206;13.316;2023-04-24T15:37:12;2.33;;;2.00;;
10659;SDS011;5378;53.206;13.316;2023-04-24T15:40:00;1.70;;;1.43;;
10659;SDS011;5378;53.206;13.316;2023-04-24T15:42:49;2.07;;;1.70;;
10659;SDS011;5378;53.206;13.316;2023-04-24T15:45:38;1.83;;;1.40;;
10659;SDS011;5378;53.206;13.316;2023-04-24T15:48:24;1.50;;;1.33;;
10659;SDS011;5378;53.206;13.316;2023-04-24T15:51:12;1.40;;;1.20;;
10659;SDS011;5378;53.206;13.316;2023-04-24T15:53:59;1.57;;;1.43;;
10659;SDS011;5378;53.206;13.316;2023-04-24T15:56:46;1.67;;;1.37;;
10659;SDS011;5378;53.206;13.316;2023-04-24T15:59:33;1.13;;;1.03;;
10659;SDS011;5378;53.206;13.316;2023-04-24T16:02:21;1.77;;;1.30;;
10659;SDS011;5378;53.206;13.316;2023-04-24T16:05:08;16.83;;;3.50;;
10659;SDS011;5378;53.206;13.316;2023-04-24T16:07:56;1.67;;;1.40;;
10659;SDS011;5378;53.206;13.316;2023-04-24T16:10:43;1.43;;;1.17;;
10659;SDS011;5378;53.206;13.316;2023-04-24T16:13:31;2.23;;;1.63;;
10659;SDS011;5378;53.206;13.316;2023-04-24T16:16:19;13.13;;;1.73;;
10659;SDS011;5378;53.206;13.316;2023-04-24T16:19:07;1.43;;;1.00;;
10659;SDS011;5378;53.206;13.316;2023-04-24T16:21:54;1.00;;;0.90;;
10659;SDS011;5378;53.206;13.316;2023-04-24T16:24:42;4.70;;;1.57;;
10659;SDS011;5378;53.206;13.316;2023-04-24T16:27:31;2.73;;;1.00;;
10659;SDS011;5378;53.206;13.316;2023-04-24T16:30:18;1.67;;;1.57;;
10659;SDS011;5378;53.206;13.316;2023-04-24T16:33:05;2.50;;;1.43;;
10659;SDS011;5378;53.206;13.316;2023-04-24T16:35:55;3.50;;;1.10;;
10659;SDS011;5378;53.206;13.316;2023-04-24T16:38:42;1.00;;;0.90;;
10659;SDS011;5378;53.206;13.316;2023-04-24T16:41:29;3.73;;;1.23;;
10659;SDS011;5378;53.206;13.316;2023-04-24T16:44:16;1.50;;;1.30;;
10659;SDS011;5378;53.206;13.316;2023-04-24T16:47:04;2.07;;;1.23;;
10659;SDS011;5378;53.206;13.316;2023-04-24T16:49:51;1.73;;;1.00;;
10659;SDS011;5378;53.206;13.316;2023-04-24T16:52:40;1.20;;;1.07;;
10659;SDS011;5378;53.206;13.316;2023-04-24T16:55:28;3.87;;;1.23;;
10659;SDS011;5378;53.206;13.316;2023-04-24T16:58:15;1.40;;;1.17;;
10659;SDS011;5378;53.206;13.316;2023-04-24T17:01:02;3.13;;;1.10;;